SBPP/PMG METAR and TAF weather

Enter ICAO airport designator
Station Type Date Time Source
SBPP METAR 2019/08/22 20:00 UTC NOAA

SBPP 222000Z 18004KT 9999 SCT020 29/12 Q1020


Station Type Date Time Source
SBPP Decoded METAR 2019/08/22 20:00 UTC NOAA

Station name not available
Aug 22, 2019 - 04:00 PM EDT / 2019.08.22 2000 UTC
Wind: from the S (180 degrees) at 5 MPH (4 KT):0
Visibility: greater than 7 mile(s):0
Sky conditions: partly cloudy
Temperature: 84 F (29 C)
Dew Point: 53 F (12 C)
Relative Humidity: 34%
Pressure (altimeter): 30.12 in. Hg (1020 hPa)
ob: SBPP 222000Z 18004KT 9999 SCT020 29/12 Q1020
cycle: 20

Station Type Date Time Source
SBPP TAF 2019/08/22 18:27 UTC NOAA

TAF TAF SBPP 221515Z 2218/2318 35011KT 7000 NSC TX30/2218Z TN18/2309Z
BECMG 2218/2220 18005KT 9999 FEW020 PROB40 2306/2312 0500 FG VV001
RMK PDV

Example: see airport list